Time;durP1;ratioP1;P1;durP2;ratioP2;P2;SDS_P1;SDS_P2;PMS_P1;PMS_P2;Temp;Humidity;BMP_temperature;BMP_pressure;BME280_temperature;BME280_humidity;BME280_pressure;Samples;Min_cycle;Max_cycle;Signal;HPM_P1;HPM_P2
2021/03/26 00:02:04;;;;;;;30.65;11.65;;;;;;;-3.60;66.46;100346.45;1723961;81;21837;-71
2021/03/26 00:04:31;;;;;;;23.57;10.03;;;;;;;-3.61;65.90;100356.73;1730992;82;21227;-72
2021/03/26 00:07:01;;;;;;;26.77;11.30;;;;;;;-3.61;65.87;100349.87;1731566;82;21120;-71
2021/03/26 00:09:32;;;;;;;22.82;11.30;;;;;;;-3.59;66.22;100356.31;1732035;82;21344;-72
2021/03/26 00:12:08;;;;;;;25.15;10.38;;;;;;;-3.59;66.04;100365.33;1731444;82;21667;-71
2021/03/26 00:14:38;;;;;;;29.27;11.60;;;;;;;-3.71;65.59;100340.59;1730350;82;21187;-71
2021/03/26 00:17:07;;;;;;;25.08;10.80;;;;;;;-3.64;65.13;100361.36;1686691;81;21170;-73
2021/03/26 00:19:36;;;;;;;22.20;10.07;;;;;;;-3.66;64.83;100355.33;1697949;84;21218;-73
2021/03/26 00:22:05;;;;;;;21.43;10.03;;;;;;;-3.68;64.36;100364.72;1688776;83;21497;-72
2021/03/26 00:24:33;;;;;;;20.87;9.47;;;;;;;-3.72;64.26;100364.18;1670093;85;21201;-71
2021/03/26 00:27:02;;;;;;;24.02;10.53;;;;;;;-3.71;64.79;100364.62;1685333;85;21191;-71
2021/03/26 00:29:30;;;;;;;27.07;11.47;;;;;;;-3.69;64.49;100364.24;1685521;85;21687;-71
2021/03/26 00:31:58;;;;;;;29.23;11.13;;;;;;;-3.68;64.06;100368.97;1717295;81;21141;-67
2021/03/26 00:34:28;;;;;;;23.13;11.03;;;;;;;-3.69;63.58;100362.95;1751372;80;21398;-67
2021/03/26 00:36:57;;;;;;;61.13;21.80;;;;;;;-3.72;63.52;100369.75;1745135;80;21206;-67
2021/03/26 00:39:25;;;;;;;87.00;37.07;;;;;;;-3.77;63.89;100361.92;1742338;82;21146;-67
2021/03/26 00:41:54;;;;;;;32.20;14.77;;;;;;;-3.77;63.13;100365.78;1742467;82;21183;-68
2021/03/26 00:44:22;;;;;;;44.73;19.53;;;;;;;-3.79;63.24;100358.44;1742948;82;21223;-67
2021/03/26 00:46:51;;;;;;;34.23;14.67;;;;;;;-3.82;63.40;100368.23;1740786;79;21204;-70
2021/03/26 00:49:19;;;;;;;37.30;16.40;;;;;;;-3.80;64.06;100366.58;1739809;82;21147;-71
2021/03/26 00:51:48;;;;;;;70.40;32.03;;;;;;;-3.78;63.34;100370.45;1746032;80;21182;-71
2021/03/26 00:54:17;;;;;;;42.20;16.67;;;;;;;-3.75;63.17;100364.51;1705978;84;21167;-70
2021/03/26 00:56:46;;;;;;;53.38;22.15;;;;;;;-3.73;62.99;100367.56;1704606;84;21172;-71
2021/03/26 00:59:16;;;;;;;36.13;15.87;;;;;;;-3.69;63.06;100368.53;1704272;84;21215;-71
2021/03/26 01:01:45;;;;;;;28.07;12.50;;;;;;;-3.67;62.97;100372.02;1708131;83;21731;-70
2021/03/26 01:04:14;;;;;;;65.57;23.93;;;;;;;-3.64;62.96;100369.08;1704592;84;21185;-70
2021/03/26 01:06:44;;;;;;;53.42;21.50;;;;;;;-3.60;63.02;100369.61;1704765;84;21707;-70
2021/03/26 01:09:13;;;;;;;70.00;27.87;;;;;;;-3.61;62.97;100373.46;1704528;84;21136;-70
2021/03/26 01:11:43;;;;;;;71.80;26.00;;;;;;;-3.61;62.86;100373.46;1704961;84;21607;-68
2021/03/26 01:14:16;;;;;;;53.50;20.45;;;;;;;-3.62;62.77;100379.00;1704814;82;21184;-69
2021/03/26 01:16:48;;;;;;;36.97;15.13;;;;;;;-3.57;63.13;100376.96;1704598;84;21682;-70
2021/03/26 01:19:18;;;;;;;32.80;13.08;;;;;;;-3.53;63.07;100378.78;1704465;83;21426;-71
2021/03/26 01:21:47;;;;;;;39.63;16.73;;;;;;;-3.52;62.88;100372.78;1704624;83;21163;-71
2021/03/26 01:24:20;;;;;;;33.80;13.93;;;;;;;-3.52;62.71;100373.68;1704364;82;21260;-71
2021/03/26 01:26:47;;;;;;;28.67;13.62;;;;;;;-3.51;62.77;100369.39;1704378;84;21192;-71
2021/03/26 01:29:33;;;;;;;34.73;16.47;;;;;;;-3.46;62.68;100367.79;1851882;76;28682;-70
2021/03/26 01:32:08;;;;;;;33.05;14.18;;;;;;;-3.44;62.41;100373.84;1817429;77;21106;-72
2021/03/26 01:34:40;;;;;;;31.27;13.18;;;;;;;-3.37;62.31;100376.59;1817411;77;21370;-71
2021/03/26 01:37:09;;;;;;;30.17;12.47;;;;;;;-3.37;62.58;100375.73;1817429;77;21581;-70
2021/03/26 01:39:45;;;;;;;38.67;14.58;;;;;;;-3.38;62.51;100372.72;1817634;78;21190;-71
2021/03/26 01:42:28;;;;;;;32.95;13.83;;;;;;;-3.37;62.72;100375.73;1738713;77;21520;-69
2021/03/26 01:44:57;;;;;;;;;;;;;;;-3.37;63.04;100372.73;1732516;82;21557;-69
2021/03/26 01:47:28;;;;;;;30.43;12.65;;;;;;;-3.37;62.54;100371.44;1733970;82;22274;-69
2021/03/26 01:49:58;;;;;;;29.75;12.03;;;;;;;-3.40;62.48;100370.09;1733835;82;21285;-69
2021/03/26 01:52:26;;;;;;;24.45;11.43;;;;;;;-3.40;63.09;100373.09;1739429;81;21593;-69
2021/03/26 01:54:55;;;;;;;23.63;9.33;;;;;;;-3.39;63.28;100376.11;1736835;81;21199;-68
2021/03/26 01:57:25;;;;;;;26.37;11.50;;;;;;;-3.39;63.93;100378.69;1765223;78;21181;-71
2021/03/26 01:59:58;;;;;;;29.50;13.18;;;;;;;-3.43;64.23;100378.15;1739083;81;21193;-72
2021/03/26 02:02:28;;;;;;;26.45;11.95;;;;;;;-3.45;64.16;100375.95;1782680;79;21161;-72
2021/03/26 02:05:16;;;;;;;31.70;13.73;;;;;;;-3.47;64.31;100382.38;1798488;79;21147;-72
2021/03/26 02:07:49;;;;;;;34.33;13.33;;;;;;;-3.51;64.56;100380.55;1798222;78;21193;-71
2021/03/26 02:10:20;;;;;;;33.85;13.93;;;;;;;-3.53;64.44;100391.66;1782987;79;21601;-72
2021/03/26 02:12:50;;;;;;;30.43;13.83;;;;;;;-3.56;65.21;100385.16;1734665;80;21443;-72
2021/03/26 02:15:24;;;;;;;33.30;13.78;;;;;;;-3.61;65.59;100384.62;1778783;80;21140;-71
2021/03/26 02:17:53;;;;;;;29.75;13.40;;;;;;;-3.64;65.72;100390.95;1777994;79;21152;-72
2021/03/26 02:20:37;;;;;;;32.55;13.93;;;;;;;-3.67;65.20;100385.75;1779122;80;21172;-73
2021/03/26 02:23:11;;;;;;;32.73;13.33;;;;;;;-3.70;65.08;100384.39;1778802;79;21723;-74
2021/03/26 02:25:42;;;;;;;31.70;14.67;;;;;;;-3.74;65.13;100390.30;1778638;80;21388;-75
2021/03/26 02:28:13;;;;;;;32.63;13.75;;;;;;;-3.74;65.34;100392.00;1731417;78;21229;-69
2021/03/26 02:30:46;;;;;;;33.50;13.70;;;;;;;-3.73;65.95;100393.30;1739348;80;21237;-70
2021/03/26 02:33:16;;;;;;;30.60;13.90;;;;;;;-3.74;65.73;100393.29;1737750;82;21190;-70
2021/03/26 02:35:53;;;;;;;30.13;14.40;;;;;;;-3.76;65.72;100397.10;1737932;82;21150;-71
2021/03/26 02:38:32;;;;;;;31.80;15.05;;;;;;;-3.73;65.72;100392.44;1866438;76;27779;-72
2021/03/26 02:41:23;;;;;;;30.73;12.63;;;;;;;-3.75;65.87;100389.86;1842713;74;21174;-73
2021/03/26 02:44:22;;;;;;;30.70;13.32;;;;;;;-3.73;65.59;100395.88;1726936;83;25650;-74
2021/03/26 02:47:21;;;;;;;27.20;11.85;;;;;;;-3.76;65.91;100395.81;1669487;85;21195;-71
2021/03/26 02:50:10;;;;;;;38.23;13.07;;;;;;;-3.78;65.92;100398.77;1669340;85;21219;-73
2021/03/26 02:52:50;;;;;;;27.73;11.30;;;;;;;-3.77;66.31;100400.52;1715412;83;21185;-73
2021/03/26 02:55:45;;;;;;;25.52;10.82;;;;;;;-3.78;66.70;100403.91;1672671;84;21217;-71
2021/03/26 02:58:35;;;;;;;25.00;11.30;;;;;;;-3.77;67.11;100398.34;1754060;79;21385;-72
2021/03/26 03:01:36;;;;;;;29.07;12.90;;;;;;;-3.77;68.11;100405.67;1763282;81;21200;-72
2021/03/26 03:04:15;;;;;;;27.60;12.23;;;;;;;-3.74;67.96;100403.16;1734970;82;21175;-71
2021/03/26 03:07:13;;;;;;;28.33;12.63;;;;;;;-3.71;68.28;100401.94;1735112;82;21188;-70
2021/03/26 03:09:45;;;;;;;29.40;11.97;;;;;;;-3.68;68.18;100404.61;1731492;82;21227;-70
2021/03/26 03:12:30;;;;;;;26.97;11.35;;;;;;;-3.62;67.30;100413.75;1705240;78;21308;-68
2021/03/26 03:15:24;;;;;;;27.37;11.27;;;;;;;-3.55;66.85;100410.91;1697092;84;21242;-69
2021/03/26 03:18:19;;;;;;;27.70;10.90;;;;;;;-3.48;66.72;100416.66;1641930;87;21271;-68
2021/03/26 03:21:17;;;;;;;27.40;11.03;;;;;;;-3.42;65.93;100413.39;1641881;86;21172;-73
2021/03/26 03:24:15;;;;;;;26.83;11.27;;;;;;;-3.27;65.43;100413.73;1837538;78;22753;-71
2021/03/26 03:26:59;;;;;;;23.40;11.45;;;;;;;-3.27;65.47;100420.17;1780533;79;21641;-69
2021/03/26 03:30:00;;;;;;;24.73;11.57;;;;;;;-3.24;65.23;100416.40;1719742;81;21398;-69
2021/03/26 03:33:03;;;;;;;25.47;11.70;;;;;;;-3.16;65.03;100425.16;1818216;75;23129;-68
2021/03/26 03:36:00;;;;;;;27.37;11.55;;;;;;;-3.20;65.64;100425.95;1781037;80;21186;-70
2021/03/26 03:38:35;;;;;;;23.57;11.83;;;;;;;-3.21;65.26;100434.48;1782230;80;22114;-69
2021/03/26 03:41:09;;;;;;;32.67;12.75;;;;;;;-3.25;65.69;100430.09;1752186;80;21174;-70
2021/03/26 03:44:03;;;;;;;30.92;12.60;;;;;;;-3.30;65.48;100431.70;1782688;80;21567;-69
2021/03/26 03:46:43;;;;;;;34.37;13.03;;;;;;;-3.31;65.76;100431.65;1783968;79;21189;-69
2021/03/26 03:49:47;;;;;;;20.23;10.43;;;;;;;-3.28;66.25;100429.16;1888089;76;22667;-75
2021/03/26 03:52:31;;;;;;;29.20;11.68;;;;;;;-3.35;66.07;100429.86;1856349;77;21147;-71
2021/03/26 03:55:11;;;;;;;30.55;12.78;;;;;;;-3.40;66.69;100430.61;1782847;80;22280;-71
2021/03/26 03:58:10;;;;;;;27.70;12.30;;;;;;;-3.36;66.81;100428.96;1828352;76;22719;-71
2021/03/26 04:00:49;;;;;;;24.83;12.07;;;;;;;-3.41;66.50;100432.72;1784115;80;21080;-70
2021/03/26 04:03:47;;;;;;;28.75;11.90;;;;;;;-3.41;66.79;100431.85;1784069;80;22281;-70
2021/03/26 04:06:23;;;;;;;29.55;12.80;;;;;;;-3.40;67.48;100430.61;1783805;79;21210;-69
2021/03/26 04:09:01;;;;;;;65.67;23.60;;;;;;;-3.39;67.23;100428.90;1783493;80;21233;-68
2021/03/26 04:11:41;;;;;;;76.37;28.40;;;;;;;-3.38;67.28;100431.95;1783943;79;21179;-69
2021/03/26 04:15:00;;;;;;;85.97;30.20;;;;;;;-3.36;67.26;100436.69;1779226;80;21148;-69
2021/03/26 04:17:48;;;;;;;66.77;22.75;;;;;;;-3.29;67.02;100439.89;1782051;80;21574;-68
2021/03/26 04:20:36;;;;;;;72.83;26.97;;;;;;;-3.16;67.57;100447.05;1826585;76;23628;-68
2021/03/26 04:23:10;;;;;;;49.40;20.37;;;;;;;-3.14;67.29;100437.22;1753786;80;21518;-68
2021/03/26 04:25:44;;;;;;;36.77;16.37;;;;;;;-3.12;67.05;100435.55;1781902;79;22787;-69
2021/03/26 04:28:36;;;;;;;33.47;15.20;;;;;;;-3.06;67.08;100440.83;1748620;81;21851;-68
2021/03/26 04:31:31;;;;;;;50.00;18.63;;;;;;;-2.89;67.05;100444.67;1821156;75;22767;-69
2021/03/26 04:34:01;;;;;;;37.78;14.10;;;;;;;-2.85;67.11;100442.62;1781516;79;21111;-67
2021/03/26 04:36:50;;;;;;;35.00;14.98;;;;;;;-2.40;68.02;100448.29;1782415;79;21602;-68
2021/03/26 04:39:39;;;;;;;31.43;14.43;;;;;;;-1.35;66.00;100448.95;1846254;76;22681;-67
2021/03/26 04:42:13;;;;;;;43.38;16.32;;;;;;;-0.67;64.57;100453.00;1789409;76;21165;-70
2021/03/26 04:44:52;;;;;;;38.00;17.10;;;;;;;0.21;62.88;100454.05;1785234;80;21066;-71
2021/03/26 04:47:36;;;;;;;38.78;16.42;;;;;;;1.02;61.02;100456.03;1783598;80;21194;-71
2021/03/26 04:50:25;;;;;;;38.03;16.73;;;;;;;2.04;57.39;100455.23;1841052;76;23458;-71
2021/03/26 04:53:04;;;;;;;36.85;17.90;;;;;;;2.51;54.89;100457.08;1783918;80;21674;-72
2021/03/26 04:55:37;;;;;;;36.30;17.92;;;;;;;2.98;52.55;100458.80;1744949;79;21322;-73
2021/03/26 04:58:27;;;;;;;38.98;16.80;;;;;;;3.49;52.59;100459.58;1759293;79;21220;-67
2021/03/26 05:01:13;;;;;;;28.10;15.03;;;;;;;4.43;50.98;100461.75;1808298;78;27661;-67
2021/03/26 05:03:52;;;;;;;27.32;13.03;;;;;;;4.94;49.46;100463.97;1781783;80;21206;-66
2021/03/26 05:06:29;;;;;;;30.40;14.35;;;;;;;5.28;49.06;100459.30;1774471;80;21213;-66
2021/03/26 05:09:03;;;;;;;24.15;12.68;;;;;;;5.82;47.93;100467.84;1733348;81;21254;-65
2021/03/26 05:11:34;;;;;;;25.23;13.10;;;;;;;6.37;46.30;100468.45;1741133;78;21302;-73
2021/03/26 05:14:10;;;;;;;25.95;12.40;;;;;;;6.92;44.83;100468.94;1657986;86;21207;-72
2021/03/26 05:16:57;;;;;;;21.23;11.15;;;;;;;7.52;44.14;100465.67;1658288;86;21207;-73
2021/03/26 05:20:12;;;;;;;21.95;11.97;;;;;;;8.24;41.08;100465.97;1842336;76;28237;-71
2021/03/26 05:22:50;;;;;;;22.15;10.50;;;;;;;8.61;39.73;100466.88;1804107;79;21190;-72
2021/03/26 05:25:43;;;;;;;21.05;11.33;;;;;;;9.11;40.84;100463.03;1799738;79;21469;-72
2021/03/26 05:28:27;;;;;;;19.52;11.15;;;;;;;9.72;38.65;100464.03;1733442;75;28398;-65
2021/03/26 05:31:38;;;;;;;21.87;10.95;;;;;;;10.14;37.56;100473.35;1687743;84;21359;-66
2021/03/26 05:34:19;;;;;;;20.60;10.95;;;;;;;10.59;35.76;100479.02;1692175;84;21256;-66
2021/03/26 05:37:12;;;;;;;19.25;9.63;;;;;;;10.96;34.86;100473.88;1682287;84;21258;-68
2021/03/26 05:40:48;;;;;;;22.80;10.40;;;;;;;11.46;35.03;100473.08;1828089;75;22765;-65
2021/03/26 05:44:13;;;;;;;21.62;9.60;;;;;;;11.77;33.82;100475.46;1733246;77;21207;-73
2021/03/26 05:47:33;;;;;;;24.12;9.45;;;;;;;12.29;34.35;100477.51;1720896;81;21395;-73
2021/03/26 05:50:30;;;;;;;18.95;10.08;;;;;;;12.77;32.55;100475.17;1713599;81;21259;-73
2021/03/26 05:53:29;;;;;;;18.40;9.85;;;;;;;13.30;30.97;100471.72;1704622;82;21200;-72
2021/03/26 05:56:50;;;;;;;17.95;9.58;;;;;;;13.82;29.18;100473.38;1855371;75;23373;-68
2021/03/26 05:59:33;;;;;;;19.60;9.43;;;;;;;14.01;30.07;100478.25;1723288;81;21128;-70
2021/03/26 06:02:31;;;;;;;17.65;9.23;;;;;;;14.42;28.09;100483.42;1744585;81;21363;-70
2021/03/26 06:05:44;;;;;;;15.60;9.70;;;;;;;14.68;29.50;100487.49;1754886;80;21191;-69
2021/03/26 06:08:40;;;;;;;21.50;9.70;;;;;;;15.07;27.56;100481.64;1704984;82;21038;-70
2021/03/26 06:12:15;;;;;;;18.42;8.93;;;;;;;15.40;26.83;100481.70;1705124;83;21176;-69
2021/03/26 06:15:16;;;;;;;17.77;9.18;;;;;;;15.81;27.15;100485.36;1701687;81;21182;-73
2021/03/26 06:18:36;;;;;;;17.60;9.05;;;;;;;16.28;26.20;100489.04;1680235;83;21409;-73
2021/03/26 06:21:50;;;;;;;33.33;9.83;;;;;;;16.68;25.90;100485.02;1863350;75;22838;-74
2021/03/26 06:25:04;;;;;;;15.45;8.80;;;;;;;16.86;25.46;100483.59;1832616;77;21176;-72
2021/03/26 06:28:04;;;;;;;16.82;8.70;;;;;;;17.10;24.71;100480.00;1741159;78;21333;-70
2021/03/26 06:30:40;;;;;;;19.02;8.55;;;;;;;17.47;24.38;100489.32;1693017;82;21212;-70
2021/03/26 06:33:55;;;;;;;18.12;9.55;;;;;;;17.81;24.91;100488.16;1732389;81;21208;-70
2021/03/26 06:36:41;;;;;;;19.12;10.13;;;;;;;18.07;23.39;100486.17;1690116;82;21200;-69
2021/03/26 06:39:24;;;;;;;16.25;9.68;;;;;;;18.23;22.51;100482.42;1688668;82;21203;-69
2021/03/26 06:42:21;;;;;;;18.15;9.93;;;;;;;18.39;22.24;100482.80;1728671;77;21391;-75
2021/03/26 06:45:28;;;;;;;14.98;9.13;;;;;;;18.42;22.95;100482.59;1776137;78;21600;-73
2021/03/26 06:48:05;;;;;;;29.65;9.50;;;;;;;18.78;22.10;100481.20;1776990;80;21135;-75
2021/03/26 06:51:14;;;;;;;32.33;11.28;;;;;;;19.12;21.67;100482.94;1762681;80;21190;-72
2021/03/26 06:54:02;;;;;;;18.15;10.68;;;;;;;19.29;21.46;100484.02;1785586;78;21182;-74
2021/03/26 06:57:09;;;;;;;13.58;8.70;;;;;;;19.54;21.61;100489.02;1706115;82;22149;-73
2021/03/26 07:00:04;;;;;;;15.05;9.15;;;;;;;19.87;20.67;100480.01;1694550;82;21217;-75
2021/03/26 07:03:01;;;;;;;24.25;9.25;;;;;;;20.05;20.15;100484.54;1693090;82;21271;-75
2021/03/26 07:05:57;;;;;;;15.68;9.33;;;;;;;20.10;20.20;100480.20;1707676;80;21129;-74
2021/03/26 07:08:45;;;;;;;26.05;10.23;;;;;;;20.27;20.32;100488.37;1771261;79;21621;-72
2021/03/26 07:15:02;;;;;;;19.57;10.93;;;;;;;20.33;19.47;100479.40;1757018;80;21184;-82
2021/03/26 07:18:12;;;;;;;18.07;9.23;;;;;;;20.52;20.25;100486.97;1800615;79;21146;-80
2021/03/26 07:21:01;;;;;;;34.30;12.90;;;;;;;20.51;20.60;100480.38;1795363;79;21157;-78
2021/03/26 07:24:06;;;;;;;19.27;11.57;;;;;;;20.67;19.98;100479.66;1749844;79;21066;-81
2021/03/26 07:26:42;;;;;;;16.75;10.40;;;;;;;20.83;19.80;100478.53;1796951;78;21771;-72
2021/03/26 07:29:35;;;;;;;15.18;9.60;;;;;;;20.94;21.78;100486.61;1733289;80;21222;-70
2021/03/26 07:32:40;;;;;;;18.73;10.90;;;;;;;21.07;20.36;100490.09;1748824;80;21210;-71
2021/03/26 07:35:39;;;;;;;20.25;11.22;;;;;;;21.38;19.30;100487.75;1734437;80;21398;-73
2021/03/26 07:38:43;;;;;;;19.00;10.58;;;;;;;21.65;18.83;100490.63;1725098;82;21186;-74
2021/03/26 07:41:40;;;;;;;16.57;10.48;;;;;;;21.84;19.42;100492.25;1732546;81;21621;-76
2021/03/26 07:44:30;;;;;;;16.20;10.05;;;;;;;21.97;19.94;100501.04;1691809;82;21279;-74
2021/03/26 07:47:37;;;;;;;17.70;9.83;;;;;;;22.25;17.87;100496.20;1732867;82;21273;-74
2021/03/26 07:50:31;;;;;;;13.68;9.08;;;;;;;22.17;18.35;100501.27;1736164;82;21242;-73
2021/03/26 07:53:20;;;;;;;15.00;8.50;;;;;;;22.10;20.80;100502.74;1709906;82;21153;-74
2021/03/26 07:55:55;;;;;;;12.68;8.40;;;;;;;22.14;17.48;100502.38;1734132;82;21200;-73
2021/03/26 07:58:40;;;;;;;12.80;7.67;;;;;;;21.88;17.51;100496.41;1725886;80;21163;-78
2021/03/26 08:01:17;;;;;;;27.05;7.47;;;;;;;21.78;17.99;100506.13;1761060;81;21626;-77
2021/03/26 08:04:04;;;;;;;14.45;7.83;;;;;;;22.06;19.29;100508.82;1765027;80;21205;-77
2021/03/26 08:06:55;;;;;;;15.55;7.05;;;;;;;22.34;18.48;100506.19;1738106;81;21184;-78
2021/03/26 08:10:32;;;;;;;12.90;6.15;;;;;;;22.20;17.62;100509.06;1796531;79;22638;-75
2021/03/26 08:13:08;;;;;;;10.98;6.87;;;;;;;22.18;17.39;100507.02;1727740;78;21249;-74
2021/03/26 08:15:57;;;;;;;9.75;6.10;;;;;;;22.22;18.77;100509.83;1636805;85;21396;-75
2021/03/26 08:18:30;;;;;;;;;;;;;;;22.47;18.29;100511.89;1626202;87;21676;-73
2021/03/26 08:21:20;;;;;;;17.20;7.00;;;;;;;22.88;17.77;100510.34;1630304;87;20580;-73
2021/03/26 08:24:29;;;;;;;13.62;7.12;;;;;;;23.09;16.71;100507.23;1625860;87;21166;-72
2021/03/26 08:27:41;;;;;;;12.80;5.58;;;;;;;23.09;16.71;100512.61;1627662;86;21248;-73
2021/03/26 08:30:37;;;;;;;11.20;5.78;;;;;;;23.03;17.33;100506.43;1680938;84;22302;-76
2021/03/26 08:33:37;;;;;;;9.90;5.35;;;;;;;22.99;17.26;100510.34;1693735;84;21227;-76
2021/03/26 08:36:33;;;;;;;10.00;5.60;;;;;;;23.12;16.02;100504.78;1693498;84;21182;-77
2021/03/26 08:39:34;;;;;;;9.48;4.75;;;;;;;23.16;16.98;100503.05;1683590;84;21201;-77
2021/03/26 08:42:20;;;;;;;21.45;5.45;;;;;;;23.30;17.70;100509.11;1685961;84;21143;-78
2021/03/26 08:44:59;;;;;;;10.50;5.42;;;;;;;23.37;15.38;100507.59;1757104;81;22046;-73
2021/03/26 08:47:33;;;;;;;8.43;4.85;;;;;;;23.19;15.40;100506.84;1758073;81;21213;-73
2021/03/26 08:50:19;;;;;;;7.75;4.90;;;;;;;23.18;16.80;100506.47;1761453;81;21181;-73
2021/03/26 08:53:08;;;;;;;7.50;4.90;;;;;;;23.15;15.76;100505.39;1755148;81;21149;-74
2021/03/26 08:56:15;;;;;;;9.88;5.00;;;;;;;23.09;16.49;100509.92;1729878;81;21211;-74
2021/03/26 08:59:14;;;;;;;7.70;5.40;;;;;;;22.98;16.17;100507.24;1689454;80;21226;-78
2021/03/26 09:02:01;;;;;;;10.48;4.97;;;;;;;23.12;16.28;100509.69;1602638;88;21196;-79
2021/03/26 09:04:41;;;;;;;7.50;4.80;;;;;;;23.33;17.42;100510.18;1616509;87;21197;-78
2021/03/26 09:07:37;;;;;;;6.92;4.37;;;;;;;23.37;15.71;100508.95;1601921;88;21238;-78
2021/03/26 09:10:23;;;;;;;8.80;4.60;;;;;;;23.28;15.59;100517.78;1631437;87;21206;-79
2021/03/26 09:13:43;;;;;;;8.20;5.12;;;;;;;23.35;14.98;100510.91;1605438;82;21253;-73
2021/03/26 09:16:28;;;;;;;9.30;5.17;;;;;;;22.76;15.90;100521.61;1745985;80;21198;-73
2021/03/26 09:19:13;;;;;;;21.00;5.97;;;;;;;22.61;17.81;100516.98;1737165;82;21186;-74
2021/03/26 09:22:08;;;;;;;10.72;4.62;;;;;;;22.49;16.24;100520.67;1735192;81;21198;-74
2021/03/26 09:25:06;;;;;;;7.78;4.50;;;;;;;22.40;16.12;100517.75;1722525;82;21207;-73
2021/03/26 09:27:52;;;;;;;9.73;4.40;;;;;;;22.46;16.17;100518.25;1730872;80;21367;-72
2021/03/26 09:30:34;;;;;;;11.28;5.42;;;;;;;22.60;16.73;100512.61;1649348;85;21214;-70
2021/03/26 09:33:13;;;;;;;10.93;5.40;;;;;;;22.85;16.35;100514.14;1652348;85;21228;-72
2021/03/26 09:36:01;;;;;;;21.77;5.55;;;;;;;22.97;16.55;100516.30;1613623;87;21605;-72
2021/03/26 09:38:40;;;;;;;8.43;5.05;;;;;;;22.62;16.84;100522.73;1614755;88;21145;-72
2021/03/26 09:41:23;;;;;;;10.83;5.20;;;;;;;22.51;17.22;100520.91;1650545;85;21367;-71
2021/03/26 09:43:58;;;;;;;10.65;4.87;;;;;;;22.64;16.52;100523.47;1683271;82;21221;-74
2021/03/26 09:47:01;;;;;;;14.28;4.83;;;;;;;22.23;16.14;100518.76;1688239;83;21189;-73
2021/03/26 09:49:42;;;;;;;11.33;5.65;;;;;;;21.51;17.78;100523.38;1673500;85;21274;-75
2021/03/26 09:52:45;;;;;;;7.90;5.05;;;;;;;21.47;17.76;100524.58;1645736;87;21161;-74
2021/03/26 09:55:33;;;;;;;11.70;5.12;;;;;;;21.21;17.25;100522.98;1638362;86;22144;-72
2021/03/26 09:58:39;;;;;;;6.70;4.97;;;;;;;20.85;17.71;100524.78;1649882;80;21216;-76
2021/03/26 10:01:16;;;;;;;11.48;5.22;;;;;;;20.92;17.97;100523.35;1654320;85;21213;-75
2021/03/26 10:04:09;;;;;;;12.63;5.33;;;;;;;21.03;17.36;100515.37;1714266;82;21169;-77
2021/03/26 10:07:18;;;;;;;10.82;5.67;;;;;;;20.83;18.75;100528.05;1673146;85;21316;-77
2021/03/26 10:09:49;;;;;;;19.65;5.17;;;;;;;20.84;17.84;100525.73;1686174;83;21312;-77
2021/03/26 10:12:24;;;;;;;9.05;5.12;;;;;;;20.66;21.84;100527.46;1666678;85;21720;-77
2021/03/26 10:15:00;;;;;;;8.63;4.90;;;;;;;20.86;21.24;100525.98;1725203;81;21175;-73
2021/03/26 10:18:08;;;;;;;7.60;4.90;;;;;;;21.21;18.69;100522.98;1730307;81;21186;-72
2021/03/26 10:20:51;;;;;;;10.05;6.03;;;;;;;21.34;17.69;100525.95;1714904;83;21213;-73
2021/03/26 10:24:11;;;;;;;11.73;5.05;;;;;;;21.64;17.80;100515.73;1729529;81;21373;-71
2021/03/26 10:27:00;;;;;;;10.32;5.60;;;;;;;21.68;19.06;100518.05;1716403;83;21394;-71
2021/03/26 10:29:44;;;;;;;10.45;5.17;;;;;;;21.48;19.08;100518.73;1732248;80;21213;-72
2021/03/26 10:32:27;;;;;;;9.45;5.00;;;;;;;21.32;17.84;100509.63;1739108;82;21151;-73
2021/03/26 10:34:59;;;;;;;8.80;5.37;;;;;;;21.44;17.08;100507.41;1698711;83;21227;-73
2021/03/26 10:37:53;;;;;;;9.98;4.80;;;;;;;21.46;18.73;100500.58;1699010;84;21396;-74
2021/03/26 10:40:54;;;;;;;9.38;5.00;;;;;;;21.19;21.68;100512.86;1699852;83;21226;-71
2021/03/26 10:43:41;;;;;;;7.97;4.62;;;;;;;21.03;20.24;100507.34;1708332;78;21226;-74
2021/03/26 10:46:18;;;;;;;6.08;4.97;;;;;;;21.07;17.22;100506.16;1683882;84;21147;-73
2021/03/26 10:49:23;;;;;;;7.40;5.25;;;;;;;21.11;16.95;100502.25;1685794;84;21226;-74
2021/03/26 10:52:15;;;;;;;8.88;4.92;;;;;;;20.98;18.66;100502.83;1687605;84;22515;-75
2021/03/26 10:54:58;;;;;;;7.25;4.87;;;;;;;20.71;19.20;100497.20;1679222;84;21206;-74
2021/03/26 10:57:58;;;;;;;8.53;5.15;;;;;;;20.78;18.00;100504.78;1682168;84;21185;-75
2021/03/26 11:00:34;;;;;;;11.68;5.20;;;;;;;20.77;17.23;100505.73;1694978;84;21208;-73
2021/03/26 11:03:17;;;;;;;10.45;5.20;;;;;;;20.72;18.90;100500.23;1687831;84;21659;-73
2021/03/26 11:05:52;;;;;;;7.47;4.37;;;;;;;21.05;20.02;100497.38;1658342;84;21455;-72
2021/03/26 11:08:42;;;;;;;21.15;4.58;;;;;;;20.99;18.59;100497.83;1647922;85;21332;-72
2021/03/26 11:11:16;;;;;;;7.83;4.62;;;;;;;20.91;22.40;100497.53;1616635;87;21253;-72
2021/03/26 11:14:37;;;;;;;8.68;5.40;;;;;;;20.58;18.38;100510.25;1790627;75;28332;-71
2021/03/26 11:17:19;;;;;;;9.78;5.45;;;;;;;20.48;18.30;100500.67;1672486;84;21184;-75
2021/03/26 11:20:14;;;;;;;11.93;4.72;;;;;;;20.55;17.66;100500.60;1667876;85;21391;-75
2021/03/26 11:22:58;;;;;;;7.20;4.70;;;;;;;20.22;18.27;100499.41;1682964;84;21255;-74
2021/03/26 11:25:36;;;;;;;22.40;7.70;;;;;;;20.07;19.49;100505.83;1707399;82;21124;-74
2021/03/26 11:28:45;;;;;;;13.78;5.37;;;;;;;19.86;18.93;100496.17;1727617;79;21162;-74
2021/03/26 11:31:30;;;;;;;7.85;5.30;;;;;;;19.62;18.88;100496.01;1724110;82;21151;-72
2021/03/26 11:34:26;;;;;;;9.08;5.50;;;;;;;19.33;19.27;100497.53;1737070;81;21342;-75
2021/03/26 11:37:35;;;;;;;9.35;4.95;;;;;;;18.89;19.62;100499.16;1692826;83;21717;-76
2021/03/26 11:40:24;;;;;;;7.83;5.75;;;;;;;18.71;21.20;100494.53;1719734;82;21220;-76
2021/03/26 11:43:21;;;;;;;10.03;5.28;;;;;;;18.57;20.30;100499.43;1694153;83;21630;-74
2021/03/26 11:46:06;;;;;;;13.32;5.90;;;;;;;18.59;23.44;100495.70;1623040;86;21169;-71
2021/03/26 11:48:58;;;;;;;11.95;6.20;;;;;;;18.76;22.94;100497.75;1650391;86;21294;-70
2021/03/26 11:51:34;;;;;;;11.28;6.42;;;;;;;18.84;21.58;100500.34;1676871;85;21178;-70
2021/03/26 11:54:36;;;;;;;9.95;5.80;;;;;;;18.75;20.37;100486.69;1673904;85;21217;-70
2021/03/26 11:57:29;;;;;;;13.50;6.83;;;;;;;18.47;21.65;100481.81;1674836;85;21205;-72
2021/03/26 12:00:15;;;;;;;19.67;6.78;;;;;;;18.34;23.36;100488.91;1742267;78;21614;-76
2021/03/26 12:02:59;;;;;;;10.30;6.03;;;;;;;18.35;24.56;100486.60;1763997;80;21201;-77
2021/03/26 12:06:11;;;;;;;11.63;6.78;;;;;;;18.37;22.04;100486.88;1722005;82;21136;-74
2021/03/26 12:09:08;;;;;;;11.08;5.95;;;;;;;18.33;22.20;100485.84;1721903;82;21245;-74
2021/03/26 12:11:47;;;;;;;9.50;6.00;;;;;;;18.21;23.25;100485.66;1653194;85;21178;-76
2021/03/26 12:14:29;;;;;;;11.22;5.75;;;;;;;18.21;22.05;100484.81;1704788;80;21582;-69
2021/03/26 12:17:12;;;;;;;9.53;5.58;;;;;;;17.98;21.71;100479.59;1742750;82;22191;-72
2021/03/26 12:19:43;;;;;;;12.13;5.90;;;;;;;17.77;22.65;100478.61;1757983;80;21161;-70
2021/03/26 12:22:23;;;;;;;12.15;6.22;;;;;;;17.63;23.02;100475.09;1737346;82;21127;-70
2021/03/26 12:25:09;;;;;;;11.88;6.10;;;;;;;17.51;23.12;100478.02;1720568;82;21174;-71
2021/03/26 12:27:47;;;;;;;11.90;5.47;;;;;;;17.34;22.94;100470.55;1701212;83;21185;-70
2021/03/26 12:30:20;;;;;;;15.72;6.05;;;;;;;17.41;24.03;100476.36;1703121;81;21379;-74
2021/03/26 12:32:56;;;;;;;9.05;5.90;;;;;;;17.49;23.94;100481.25;1749246;79;35843;-74
2021/03/26 12:35:41;;;;;;;8.43;5.22;;;;;;;17.43;24.53;100469.14;1717596;81;21141;-73
2021/03/26 12:39:03;;;;;;;9.10;5.03;;;;;;;17.11;25.13;100473.24;1746875;80;21194;-73
2021/03/26 12:42:05;;;;;;;14.23;5.42;;;;;;;17.02;25.08;100466.28;1751487;80;21147;-74
2021/03/26 12:44:47;;;;;;;10.90;5.47;;;;;;;16.96;28.52;100464.84;1762571;80;22292;-69
2021/03/26 12:47:34;;;;;;;7.65;4.92;;;;;;;16.90;26.42;100463.86;1744838;80;21233;-69